• Join FlightAware (Why Join?)
  • Login
  • US Flag 
05:14PM EDT


 

Airport Tracker/Info


-or-


 

Live Flight TrackerFlight Track Log ✈ UCA3599 ✈ 03-Nov-2013 ✈ KBGM - KIAD

Flight Track Log - Related Links

Times and Time Zones

All times are in EST time to prevent confusion due to time zone crossing. See the UCA3599 flight status page for this flight to view local times or setup timezone preferences in your user account.

Time Position Orientation Groundspeed Altitude Reporting Facility
EST Latitude Longitude Course Direction KTS MPH feet Rate Location/Type
06:10AM 42.2339 -76.0278 219° Southwest 138 159 3,500  Level New York Center
06:11AM 42.1986 -76.0669 219° Southwest 178 205 5,000 1,620 Climbing New York Center
06:12AM 42.1492 -76.1019 208° Southwest 191 220 6,800 1,800 Climbing New York Center
06:13AM 42.1058 -76.1433 215° Southwest 196 226 8,600 1,740 Climbing New York Center
06:14AM 42.0567 -76.1728 204° Southwest 201 231 10,300 1,680 Climbing New York Center
06:15AM 42.0117 -76.1997 204° Southwest 201 231 12,000 1,680 Climbing New York Center
06:16AM 41.9603 -76.2292 203° Southwest 196 226 13,700 1,500 Climbing New York Center
06:17AM 41.9092 -76.2528 199° South 196 226 15,100 1,080 Climbing New York Center
06:18AM 41.8578 -76.2847 205° Southwest 201 231 15,900 360 Climbing New York Center
06:19AM 41.8000 -76.3161 202° Southwest 231 266 15,900  Level New York Center
06:20AM 41.7275 -76.3572 203° Southwest 262 302 15,900  Level New York Center
06:21AM 41.6608 -76.3989 205° Southwest 267 307 16,000  Climbing New York Center
06:22AM 41.5925 -76.4347 201° Southwest 262 302 16,000  Level New York Center
06:23AM 41.5325 -76.4686 203° Southwest 262 302 16,000  Level New York Center
06:24AM 41.4661 -76.5072 204° Southwest 262 302 16,000  Level New York Center
06:25AM 41.3914 -76.5478 202° Southwest 262 302 16,000  Level New York Center
06:26AM 41.3250 -76.5836 202° Southwest 262 302 16,000  Level New York Center
06:27AM 41.2606 -76.6194 203° Southwest 262 302 16,000  Level New York Center
06:28AM 41.2006 -76.6556 204° Southwest 262 302 16,000  Level New York Center
06:29AM 41.1319 -76.6964 204° Southwest 262 302 16,000  Level New York Center
06:30AM 41.0675 -76.7322 203° Southwest 262 302 16,100  Climbing New York Center
06:31AM 41.0011 -76.7678 202° Southwest 262 302 16,000  Descending New York Center
06:32AM 40.9283 -76.8081 203° Southwest 262 302 16,100  Climbing New York Center
06:33AM 40.8617 -76.8458 203° Southwest 262 302 16,100  Level New York Center
06:34AM 40.7953 -76.8811 202° Southwest 262 302 16,100  Level New York Center
06:35AM 40.7253 -76.9050 195° South 262 302 16,100 -60 Level New York Center
06:36AM 40.6533 -76.9286 194° South 269 310 16,000 -60 Descending New York Center
06:37AM 40.5792 -76.9522 194° South 269 310 16,000  Level New York Center
06:38AM 40.5069 -76.9731 192° South 269 310 16,000 -240 Level New York Center
06:39AM 40.4308 -76.9961 193° South 275 316 15,600 -720 Descending New York Center
06:40AM 40.3544 -77.0192 193° South 286 329 14,600 -1,020 Descending New York Center
06:42AM 40.2167 -77.0667 195° South 280 322 12,800 -1,020 Descending Potomac TRACON
06:43AM 40.1500 -77.0833 191° South 271 312 11,800 -1,020 Descending Potomac TRACON
06:44AM 40.0667 -77.1000 189° South 266 306 10,800 -1,020 Descending Potomac TRACON
06:45AM 40.0000 -77.1333 201° Southwest 276 318 9,800 -960 Descending Potomac TRACON
06:46AM 39.9333 -77.1500 191° South 278 320 9,000 -420 Descending Potomac TRACON
06:47AM 39.8500 -77.1667 189° South 266 306 9,000 -60 Level Potomac TRACON
06:48AM 39.7833 -77.2000 201° Southwest 265 305 8,900 -360 Descending Potomac TRACON
06:48AM 39.7167 -77.2167 191° South 272 313 8,400 -720 Descending Potomac TRACON
06:49AM 39.6667 -77.2667 218° Southwest 260 299 7,600 -780 Descending Potomac TRACON
06:50AM 39.6167 -77.3333 226° Southwest 264 304 7,000 -360 Descending Potomac TRACON
06:51AM 39.5500 -77.3500 191° South 273 314 7,000  Level Potomac TRACON
06:52AM 39.4833 -77.3500 180° South 265 305 7,000  Level Potomac TRACON
06:53AM 39.4000 -77.3667 189° South 268 308 7,000 -540 Level Potomac TRACON
06:54AM 39.3333 -77.3667 180° South 279 321 6,100 -1,080 Descending Potomac TRACON
06:55AM 39.2500 -77.3667 180° South 281 323 4,900 -1,020 Descending Potomac TRACON
06:56AM 39.1833 -77.3667 180° South 268 308 4,000 -540 Descending Potomac TRACON
06:57AM 39.1000 -77.3500 171° South 265 305 3,900 -240 Descending Potomac TRACON
06:58AM 39.0333 -77.3500 180° South 266 306 3,600 -480 Descending Potomac TRACON
06:59AM 38.9500 -77.3500 180° South 264 304 3,000 -360 Descending Potomac TRACON
07:00AM 38.9000 -77.3500 180° South 262 302 2,900 -480 Descending Potomac TRACON
07:01AM 38.8333 -77.3667 191° South 244 281 2,100 -480 Descending Potomac TRACON
07:02AM 38.7833 -77.4000 207° Southwest 217 250 2,100  Level Potomac TRACON
07:03AM 38.8167 -77.4333 322° Northwest 184 212 2,100 -300 Level Potomac TRACON
07:04AM 38.8667 -77.4333 360° North 145 167 1,600 -600 Descending Potomac TRACON
07:05AM 38.9000 -77.4333 360° North 114 131 1,000 -600 Descending Potomac TRACON
07:07AM 38.9333 -77.4500 349° North  Level FlightAware Approximate
07:14AM 38.9474 -77.4599 349° North  Level Estimated
07:15AM 38.9474 -77.4599 349° North  Level Estimated